Time;durP1;ratioP1;P1;durP2;ratioP2;P2;SDS_P1;SDS_P2;PMS_P1;PMS_P2;Temp;Humidity;BMP_temperature;BMP_pressure;BME280_temperature;BME280_humidity;BME280_pressure;Samples;Min_cycle;Max_cycle;Signal;HPM_P1;HPM_P2
2021/10/01 00:01:17;;;;;;;1.43;1.20;;;;;;;9.21;82.54;97082.66;5099442;28;20206;-73
2021/10/01 00:03:43;;;;;;;1.40;1.30;;;;;;;9.22;81.71;97079.88;5096899;28;20308;-73
2021/10/01 00:06:10;;;;;;;3.00;1.40;;;;;;;9.18;81.10;97075.09;5096707;28;20206;-73
2021/10/01 00:08:36;;;;;;;1.97;1.40;;;;;;;8.88;82.40;97074.56;5097594;28;20199;-74
2021/10/01 00:11:03;;;;;;;3.20;1.13;;;;;;;8.97;81.95;97066.63;5097052;28;20207;-73
2021/10/01 00:13:31;;;;;;;4.30;1.30;;;;;;;9.08;83.71;97066.44;5097073;28;20222;-72
2021/10/01 00:15:58;;;;;;;2.93;1.50;;;;;;;8.80;84.44;97059.53;5096908;28;20199;-73
2021/10/01 00:18:24;;;;;;;1.50;1.40;;;;;;;8.92;84.50;97057.53;5096478;28;21372;-73
2021/10/01 00:20:51;;;;;;;1.80;1.33;;;;;;;8.94;84.16;97055.59;5096917;28;20218;-73
2021/10/01 00:23:17;;;;;;;1.97;1.50;;;;;;;8.91;83.31;97051.44;5097925;28;20219;-73
2021/10/01 00:25:44;;;;;;;3.77;1.27;;;;;;;8.92;82.05;97053.09;5096181;28;20210;-72
2021/10/01 00:28:10;;;;;;;2.57;1.27;;;;;;;8.93;82.14;97049.50;5096326;28;20229;-73
2021/10/01 00:30:38;;;;;;;4.70;1.30;;;;;;;9.05;82.64;97048.31;5097227;28;20195;-73
2021/10/01 00:33:04;;;;;;;3.10;1.50;;;;;;;8.96;82.30;97046.59;5097197;28;20234;-73
2021/10/01 00:35:31;;;;;;;2.87;1.50;;;;;;;9.02;82.21;97038.09;5096038;28;20199;-73
2021/10/01 00:37:59;;;;;;;2.43;1.40;;;;;;;8.96;81.96;97032.59;5096855;28;20210;-73
2021/10/01 00:40:26;;;;;;;2.33;1.30;;;;;;;9.09;81.62;97037.34;5096996;28;20249;-73
2021/10/01 00:42:53;;;;;;;2.03;1.37;;;;;;;8.99;80.53;97038.41;5096744;28;20233;-72
2021/10/01 00:45:19;;;;;;;2.67;1.57;;;;;;;8.90;81.57;97034.03;5093991;28;20207;-72
2021/10/01 00:47:47;;;;;;;4.00;1.80;;;;;;;8.97;82.79;97035.06;5096221;28;20226;-73
2021/10/01 00:50:14;;;;;;;3.50;1.60;;;;;;;8.72;84.37;97027.91;5096365;28;20199;-73
2021/10/01 00:52:41;;;;;;;4.07;1.50;;;;;;;8.64;84.52;97026.97;5096734;28;20269;-73
2021/10/01 00:55:08;;;;;;;2.10;1.50;;;;;;;8.87;82.88;97031.69;5096809;28;20199;-73
2021/10/01 00:57:35;;;;;;;4.70;1.80;;;;;;;8.91;81.77;97025.16;5096245;28;20203;-72
2021/10/01 01:00:02;;;;;;;4.60;1.50;;;;;;;8.80;82.82;97024.53;5096591;28;20214;-72
2021/10/01 01:02:29;;;;;;;3.23;1.63;;;;;;;8.74;83.55;97022.50;5096381;28;20726;-72
2021/10/01 01:04:57;;;;;;;1.63;1.47;;;;;;;8.88;83.88;97020.19;5096942;28;20198;-73
2021/10/01 01:07:34;;;;;;;3.67;1.70;;;;;;;8.89;83.54;97024.47;5095733;28;21112;-73
2021/10/01 01:10:11;;;;;;;6.67;1.60;;;;;;;8.76;83.90;97021.38;5096711;28;20203;-73
2021/10/01 01:12:44;;;;;;;4.53;1.60;;;;;;;8.88;83.41;97017.56;5096403;28;20789;-73
2021/10/01 01:15:17;;;;;;;4.43;1.60;;;;;;;8.60;85.63;97021.22;5096517;28;20600;-73
2021/10/01 01:17:46;;;;;;;4.37;1.57;;;;;;;8.51;86.39;97014.19;5095970;28;20196;-73
2021/10/01 01:20:18;;;;;;;3.63;1.43;;;;;;;8.59;84.62;97009.03;5096822;28;20203;-73
2021/10/01 01:22:56;;;;;;;3.43;1.77;;;;;;;8.53;84.57;97004.34;5096162;28;20211;-73
2021/10/01 01:25:43;;;;;;;1.53;1.40;;;;;;;8.60;84.04;97005.44;5096215;28;20900;-72
2021/10/01 01:28:13;;;;;;;3.50;1.50;;;;;;;8.54;84.30;96997.28;5080114;28;20234;-73
2021/10/01 01:30:42;;;;;;;4.73;1.70;;;;;;;8.17;85.62;96990.41;5096398;28;20507;-73
2021/10/01 01:33:14;;;;;;;2.17;1.57;;;;;;;8.43;85.44;96988.81;5096201;28;20238;-73
2021/10/01 01:35:43;;;;;;;5.03;1.70;;;;;;;8.48;83.75;96985.56;5095944;28;20203;-73
2021/10/01 01:38:13;;;;;;;2.00;1.60;;;;;;;8.67;82.80;96987.28;5096285;28;20717;-73
2021/10/01 01:40:45;;;;;;;2.00;1.50;;;;;;;8.70;83.08;96987.81;5096625;28;20210;-72
2021/10/01 01:43:13;;;;;;;2.70;1.70;;;;;;;8.56;83.48;96980.41;5099434;28;21003;-72
2021/10/01 01:45:41;;;;;;;1.43;1.33;;;;;;;8.52;83.17;96971.16;5096895;28;20203;-72
2021/10/01 01:48:10;;;;;;;1.40;1.30;;;;;;;8.56;82.49;96975.16;5099742;28;20227;-73
2021/10/01 01:50:38;;;;;;;2.67;1.80;;;;;;;8.60;82.98;96971.28;5099973;28;20210;-73
2021/10/01 01:53:06;;;;;;;1.63;1.47;;;;;;;8.40;84.14;96968.06;5099893;28;20223;-73
2021/10/01 01:55:33;;;;;;;3.17;1.60;;;;;;;8.49;83.64;96962.78;5099151;28;20200;-73
2021/10/01 01:58:01;;;;;;;2.17;1.37;;;;;;;8.39;82.80;96963.78;5099306;28;20280;-72
2021/10/01 02:00:28;;;;;;;2.17;1.40;;;;;;;8.46;82.83;96959.63;5099683;28;20213;-73
2021/10/01 02:02:58;;;;;;;3.97;1.47;;;;;;;8.59;83.05;96959.13;5099651;28;20248;-73
2021/10/01 02:05:26;;;;;;;2.40;1.53;;;;;;;8.65;82.46;96955.88;5099047;28;20695;-73
2021/10/01 02:07:56;;;;;;;1.93;1.40;;;;;;;8.58;84.11;96951.41;5099656;28;20223;-73
2021/10/01 02:10:24;;;;;;;2.53;1.60;;;;;;;8.42;85.76;96950.38;5099449;28;20203;-73
2021/10/01 02:12:55;;;;;;;3.63;1.80;;;;;;;8.49;85.36;96944.41;5099020;28;20231;-73
2021/10/01 02:15:23;;;;;;;2.53;1.70;;;;;;;8.56;84.16;96946.25;5099170;28;20202;-72
2021/10/01 02:17:52;;;;;;;1.77;1.40;;;;;;;8.36;83.54;96943.88;5099303;28;20207;-73
2021/10/01 02:20:20;;;;;;;1.73;1.40;;;;;;;8.35;83.24;96941.41;5098899;28;20203;-72
2021/10/01 02:22:49;;;;;;;2.93;1.93;;;;;;;8.39;83.90;96943.63;5099216;28;20924;-72
2021/10/01 02:28:30;;;;;;;2.80;1.73;;;;;;;8.59;84.02;96938.09;5098787;28;20721;-73
2021/10/01 02:31:00;;;;;;;3.63;1.80;;;;;;;8.43;84.35;96938.91;5096777;28;20267;-72
2021/10/01 02:33:34;;;;;;;2.57;1.83;;;;;;;8.40;83.93;96929.53;5099278;28;20230;-73
2021/10/01 02:36:01;;;;;;;2.37;1.70;;;;;;;8.38;83.02;96926.22;5097395;28;21297;-73
2021/10/01 02:38:29;;;;;;;2.13;1.80;;;;;;;7.99;84.02;96923.88;5098827;28;20663;-72
2021/10/01 02:40:55;;;;;;;3.27;1.63;;;;;;;7.74;85.46;96919.28;5099412;28;20203;-73
2021/10/01 02:43:22;;;;;;;2.07;1.80;;;;;;;7.94;84.15;96920.84;5098580;28;20231;-73
2021/10/01 02:45:49;;;;;;;2.60;1.53;;;;;;;7.98;83.92;96917.81;5095131;28;20203;-73
2021/10/01 02:48:15;;;;;;;1.77;1.60;;;;;;;8.15;83.73;96914.44;5099880;28;20230;-73
2021/10/01 02:50:43;;;;;;;2.73;1.80;;;;;;;8.27;84.11;96922.94;5098718;28;20199;-73
2021/10/01 02:53:21;;;;;;;2.53;2.00;;;;;;;8.39;83.67;96921.75;5098081;28;20259;-73
2021/10/01 02:55:55;;;;;;;2.80;1.70;;;;;;;8.39;83.28;96919.97;5097988;28;20210;-73
2021/10/01 02:58:26;;;;;;;2.00;1.57;;;;;;;8.41;83.54;96922.47;5098218;28;20198;-73
2021/10/01 03:00:54;;;;;;;2.60;1.50;;;;;;;8.26;84.15;96916.03;5098993;28;20203;-73
2021/10/01 03:03:23;;;;;;;2.57;1.97;;;;;;;8.15;84.78;96917.06;5098515;28;20808;-73
2021/10/01 03:05:51;;;;;;;3.50;1.90;;;;;;;8.20;85.05;96912.22;5097584;28;20210;-73
2021/10/01 03:08:19;;;;;;;3.17;1.93;;;;;;;8.24;83.23;96908.31;5097994;28;20833;-74
2021/10/01 03:10:51;;;;;;;1.97;1.60;;;;;;;8.26;83.29;96913.41;5098143;28;20207;-72
2021/10/01 03:13:22;;;;;;;4.37;1.70;;;;;;;8.28;83.06;96908.84;5098215;28;20227;-72
2021/10/01 03:15:49;;;;;;;3.77;1.80;;;;;;;8.24;83.23;96903.06;5097535;28;20203;-72
2021/10/01 03:18:16;;;;;;;3.17;1.50;;;;;;;8.10;83.07;96905.34;5098253;28;20199;-72
2021/10/01 03:20:44;;;;;;;2.13;1.67;;;;;;;8.21;82.88;96907.78;5098033;28;20202;-72
2021/10/01 03:23:11;;;;;;;2.97;1.50;;;;;;;8.12;81.88;96906.00;5097820;28;20215;-72
2021/10/01 03:25:38;;;;;;;3.20;1.63;;;;;;;8.19;81.86;96900.03;5097464;28;20203;-72
2021/10/01 03:28:07;;;;;;;1.87;1.60;;;;;;;8.00;83.29;96897.47;5098153;28;20227;-72
2021/10/01 03:30:33;;;;;;;2.63;1.70;;;;;;;7.95;83.90;96893.66;5097858;28;20210;-72
2021/10/01 03:33:00;;;;;;;2.43;1.83;;;;;;;7.87;85.27;96896.19;5097530;28;20238;-71
2021/10/01 03:35:27;;;;;;;2.93;2.10;;;;;;;7.85;85.70;96898.09;5097263;28;20195;-72
2021/10/01 03:37:53;;;;;;;2.57;2.07;;;;;;;7.67;85.90;96896.41;5097439;28;20210;-72
2021/10/01 03:40:21;;;;;;;2.63;1.87;;;;;;;7.70;85.69;96890.84;5097782;28;20198;-72
2021/10/01 03:42:48;;;;;;;3.20;2.20;;;;;;;7.64;85.02;96891.44;5098002;28;20230;-72
2021/10/01 03:45:16;;;;;;;4.53;1.90;;;;;;;7.95;84.29;96888.41;5095722;28;20203;-72
2021/10/01 03:47:42;;;;;;;3.00;2.00;;;;;;;7.76;83.96;96891.09;5096327;28;20233;-72
2021/10/01 03:50:09;;;;;;;2.00;1.80;;;;;;;7.90;83.27;96888.00;5097840;28;20203;-71
2021/10/01 03:52:36;;;;;;;6.70;2.00;;;;;;;7.77;83.48;96876.22;5097754;28;20215;-72
2021/10/01 03:55:05;;;;;;;3.20;1.73;;;;;;;7.77;83.63;96879.66;5096010;28;20207;-72
2021/10/01 03:57:32;;;;;;;2.67;2.07;;;;;;;7.51;84.39;96881.28;5096477;28;20187;-72
2021/10/01 03:59:58;;;;;;;6.77;2.20;;;;;;;7.50;85.54;96879.59;5098017;28;20207;-72
2021/10/01 04:02:26;;;;;;;4.47;2.37;;;;;;;7.81;84.47;96880.19;5097127;28;20718;-72
2021/10/01 04:04:53;;;;;;;5.77;2.53;;;;;;;7.72;84.32;96874.00;5096363;28;20214;-71
2021/10/01 04:07:19;;;;;;;7.93;2.43;;;;;;;7.75;84.84;96873.72;5096838;28;20522;-71
2021/10/01 04:09:46;;;;;;;6.47;2.37;;;;;;;7.82;84.83;96877.41;5097455;28;20253;-72
2021/10/01 04:12:12;;;;;;;4.10;1.90;;;;;;;7.58;84.05;96874.47;5096798;28;20225;-72
2021/10/01 04:14:39;;;;;;;2.93;2.23;;;;;;;7.49;84.14;96877.94;5097430;28;20205;-71
2021/10/01 04:17:05;;;;;;;3.40;2.30;;;;;;;7.64;84.30;96870.47;5096433;28;20218;-72
2021/10/01 04:19:33;;;;;;;6.97;2.60;;;;;;;7.74;85.37;96863.38;5096902;28;20214;-72
2021/10/01 04:21:59;;;;;;;3.70;2.47;;;;;;;7.47;85.33;96861.56;5097104;28;20578;-72
2021/10/01 04:24:26;;;;;;;3.07;2.20;;;;;;;7.53;85.25;96868.81;5097473;28;20224;-72
2021/10/01 04:26:52;;;;;;;3.87;2.20;;;;;;;7.57;83.51;96859.69;5096074;28;20552;-71
2021/10/01 04:29:19;;;;;;;3.37;2.20;;;;;;;7.57;83.60;96857.06;5096902;28;20714;-72
2021/10/01 04:31:46;;;;;;;2.73;2.40;;;;;;;7.56;84.00;96857.22;5097009;28;20218;-72
2021/10/01 04:34:12;;;;;;;5.50;2.00;;;;;;;7.59;83.92;96854.34;5096690;28;20272;-72
2021/10/01 04:36:40;;;;;;;3.83;2.30;;;;;;;7.68;83.92;96849.03;5096252;28;20210;-71
2021/10/01 04:39:06;;;;;;;4.80;2.37;;;;;;;7.59;84.25;96852.53;5096982;28;20203;-72
2021/10/01 04:41:33;;;;;;;2.93;2.00;;;;;;;7.29;84.40;96865.88;5096699;28;20199;-72
2021/10/01 04:43:59;;;;;;;7.73;2.20;;;;;;;7.27;85.29;96873.03;5096705;28;20219;-72
2021/10/01 04:46:26;;;;;;;10.20;2.60;;;;;;;7.41;84.97;96869.97;5093758;28;20199;-72
2021/10/01 04:48:55;;;;;;;3.93;2.53;;;;;;;7.45;85.24;96871.34;5096824;28;20227;-72
2021/10/01 04:51:21;;;;;;;4.20;2.30;;;;;;;7.26;85.71;96876.63;5097153;28;20211;-72
2021/10/01 04:53:49;;;;;;;5.07;2.53;;;;;;;7.38;85.40;96872.91;5096584;28;20238;-72
2021/10/01 04:56:16;;;;;;;4.20;2.20;;;;;;;7.24;84.72;96874.31;5096016;28;20199;-71
2021/10/01 04:58:43;;;;;;;5.27;2.70;;;;;;;7.41;85.24;96869.97;5096795;28;20663;-71
2021/10/01 05:01:09;;;;;;;5.07;2.00;;;;;;;7.46;85.60;96872.19;5096767;28;20203;-71
2021/10/01 05:03:36;;;;;;;3.40;2.57;;;;;;;7.52;84.67;96872.44;5096618;28;20219;-72
2021/10/01 05:06:02;;;;;;;3.53;2.60;;;;;;;7.37;85.51;96884.34;5096123;28;20578;-72
2021/10/01 05:08:29;;;;;;;3.07;2.23;;;;;;;7.37;84.74;96880.91;5096308;28;20223;-72
2021/10/01 05:10:57;;;;;;;5.67;2.57;;;;;;;7.70;83.36;96869.88;5096726;28;20206;-72
2021/10/01 05:13:23;;;;;;;5.23;2.50;;;;;;;7.53;83.09;96868.00;5096380;28;20714;-71
2021/10/01 05:15:50;;;;;;;3.33;2.20;;;;;;;7.60;83.21;96867.28;5096679;28;20199;-72
2021/10/01 05:18:18;;;;;;;4.00;2.50;;;;;;;7.55;83.47;96866.09;5100214;28;20523;-72
2021/10/01 05:20:45;;;;;;;6.20;2.53;;;;;;;7.58;82.98;96865.78;5101173;28;20290;-72
2021/10/01 05:23:11;;;;;;;4.03;2.13;;;;;;;7.43;83.44;96867.22;5100789;28;20219;-72
2021/10/01 05:25:38;;;;;;;4.63;2.10;;;;;;;7.50;83.62;96877.00;5099645;28;20195;-71
2021/10/01 05:28:06;;;;;;;5.33;2.40;;;;;;;7.59;84.47;96872.69;5100109;28;20203;-72
2021/10/01 05:30:33;;;;;;;5.00;2.30;;;;;;;7.36;84.08;96868.75;5100664;28;20199;-72
2021/10/01 05:33:05;;;;;;;6.20;2.20;;;;;;;7.25;83.79;96873.34;5100073;28;20246;-72
2021/10/01 05:35:32;;;;;;;2.67;2.10;;;;;;;7.47;82.88;96868.56;5099529;28;20195;-72
2021/10/01 05:37:58;;;;;;;3.90;2.37;;;;;;;7.49;83.74;96862.22;5100119;28;20207;-71
2021/10/01 05:40:25;;;;;;;8.30;2.50;;;;;;;7.50;84.45;96869.13;5099699;28;20214;-72
2021/10/01 05:42:51;;;;;;;6.90;2.80;;;;;;;7.60;84.67;96866.44;5100264;28;20226;-71
2021/10/01 05:45:19;;;;;;;4.77;2.30;;;;;;;7.74;83.71;96865.97;5097553;28;20203;-72
2021/10/01 05:47:46;;;;;;;2.90;1.93;;;;;;;7.64;83.77;96859.97;5099038;28;20210;-72
2021/10/01 05:50:15;;;;;;;4.73;2.90;;;;;;;7.70;83.93;96862.00;5099846;28;21096;-72
2021/10/01 05:52:52;;;;;;;6.67;2.67;;;;;;;7.81;84.67;96867.06;5099822;28;20700;-72
2021/10/01 05:55:19;;;;;;;4.77;2.33;;;;;;;7.67;84.21;96862.31;5099405;28;20231;-72
2021/10/01 05:57:46;;;;;;;3.50;2.20;;;;;;;7.63;85.28;96859.13;5098901;28;20679;-72
2021/10/01 06:00:13;;;;;;;3.57;2.13;;;;;;;7.90;85.16;96859.16;5099841;28;20191;-72
2021/10/01 06:02:41;;;;;;;7.07;2.77;;;;;;;7.97;85.67;96860.22;5099429;28;20230;-72
2021/10/01 06:05:08;;;;;;;4.20;2.43;;;;;;;7.90;85.29;96861.78;5099353;28;20225;-72
2021/10/01 06:07:35;;;;;;;3.47;2.40;;;;;;;7.73;86.14;96862.53;5098951;28;20203;-72
2021/10/01 06:10:01;;;;;;;4.30;2.47;;;;;;;7.98;85.95;96867.09;5099798;28;20222;-72
2021/10/01 06:12:28;;;;;;;7.03;3.20;;;;;;;7.99;87.35;96860.91;5099014;28;20222;-72
2021/10/01 06:14:54;;;;;;;7.53;3.57;;;;;;;8.12;87.98;96861.38;5099502;28;20203;-71
2021/10/01 06:17:21;;;;;;;10.60;3.40;;;;;;;8.02;88.72;96860.63;5098930;28;20206;-72
2021/10/01 06:19:49;;;;;;;4.73;3.30;;;;;;;8.39;88.96;96859.59;5098862;28;20210;-72
2021/10/01 06:22:16;;;;;;;5.87;3.70;;;;;;;8.25;89.30;96870.59;5099248;28;20222;-72
2021/10/01 06:24:43;;;;;;;4.70;3.50;;;;;;;8.47;88.68;96872.78;5099807;28;20740;-72
2021/10/01 06:27:11;;;;;;;10.70;3.83;;;;;;;8.45;89.65;96871.28;5097760;28;20199;-72
2021/10/01 06:29:38;;;;;;;8.43;3.60;;;;;;;8.59;88.67;96866.34;5098746;28;20308;-72
2021/10/01 06:32:05;;;;;;;5.47;3.60;;;;;;;8.69;88.07;96865.31;5099332;28;20199;-71
2021/10/01 06:34:32;;;;;;;8.43;4.00;;;;;;;8.60;88.29;96866.22;5098946;28;20203;-72
2021/10/01 06:37:00;;;;;;;6.73;4.40;;;;;;;8.85;88.78;96865.44;5097891;28;20696;-72
2021/10/01 06:39:26;;;;;;;6.73;4.30;;;;;;;8.73;89.63;96866.66;5099011;28;20195;-72
2021/10/01 06:41:53;;;;;;;8.03;4.10;;;;;;;8.64;90.34;96870.19;5099138;28;20203;-74
2021/10/01 06:44:24;;;;;;;6.47;4.13;;;;;;;8.93;88.63;96865.50;5098574;28;20213;-75
2021/10/01 06:46:51;;;;;;;6.97;4.50;;;;;;;9.00;88.21;96861.31;5095314;28;20218;-75
2021/10/01 06:49:33;;;;;;;7.30;4.60;;;;;;;9.13;87.80;96856.47;5099039;28;20268;-75
2021/10/01 07:23:07;;;;;;;5.90;4.20;;;;;;;10.05;88.75;96857.34;5098210;28;20659;-74
2021/10/01 08:20:28;;;;;;;16.17;7.47;;;;;;;11.85;87.07;96845.44;5097066;28;20300;-75
2021/10/01 08:22:54;;;;;;;19.17;7.20;;;;;;;12.06;85.97;96848.31;5096887;28;20229;-74
2021/10/01 08:25:21;;;;;;;19.00;6.63;;;;;;;12.32;82.74;96839.13;5097504;28;20237;-75
2021/10/01 08:27:47;;;;;;;13.87;6.97;;;;;;;12.25;84.67;96847.91;5096816;28;20570;-75
2021/10/01 08:30:15;;;;;;;11.67;6.20;;;;;;;12.71;83.32;96839.88;5096845;28;20278;-75
2021/10/01 08:32:42;;;;;;;14.73;6.40;;;;;;;12.84;82.49;96835.66;5096744;28;20227;-75
2021/10/01 08:35:10;;;;;;;14.20;6.40;;;;;;;12.82;82.44;96836.81;5097272;28;20203;-75
2021/10/01 08:37:36;;;;;;;16.20;6.77;;;;;;;12.77;82.33;96839.19;5096095;28;20225;-75
2021/10/01 08:40:05;;;;;;;10.97;7.13;;;;;;;12.99;82.43;96833.09;5097005;28;20199;-75
2021/10/01 08:42:33;;;;;;;10.77;6.47;;;;;;;13.24;80.78;96826.56;5096762;28;20800;-75
2021/10/01 08:45:00;;;;;;;13.73;6.30;;;;;;;13.46;80.40;96827.34;5094435;28;20284;-74
2021/10/01 08:47:28;;;;;;;8.53;5.77;;;;;;;13.51;81.22;96819.69;5096129;28;20203;-75
2021/10/01 08:50:00;;;;;;;15.80;7.17;;;;;;;13.34;81.65;96813.91;5097344;28;20229;-75
2021/10/01 08:52:27;;;;;;;11.13;5.73;;;;;;;13.46;82.20;96814.13;5100752;28;20717;-75
2021/10/01 08:54:54;;;;;;;11.83;5.73;;;;;;;13.81;80.94;96816.09;5100735;28;20222;-74
2021/10/01 08:57:21;;;;;;;11.97;5.83;;;;;;;13.67;82.61;96813.41;5101023;28;20202;-75
2021/10/01 08:59:47;;;;;;;10.50;6.40;;;;;;;13.76;80.73;96809.66;5101302;28;20206;-74
2021/10/01 09:02:14;;;;;;;10.27;5.90;;;;;;;13.53;80.88;96803.63;5100554;28;20614;-75
2021/10/01 09:04:42;;;;;;;12.10;5.60;;;;;;;13.79;80.93;96812.78;5100903;28;20203;-75
2021/10/01 09:07:08;;;;;;;9.27;5.33;;;;;;;13.57;80.69;96800.44;5100464;28;20214;-75
2021/10/01 09:09:36;;;;;;;10.30;5.90;;;;;;;14.02;79.19;96801.06;5100604;28;20223;-75
2021/10/01 09:12:04;;;;;;;11.45;5.50;;;;;;;13.98;79.58;96799.78;5101017;28;20206;-74
2021/10/01 09:14:30;;;;;;;8.57;5.85;;;;;;;13.99;79.93;96795.34;5100724;28;20210;-75
2021/10/01 09:16:58;;;;;;;9.43;5.20;;;;;;;14.26;79.66;96794.69;5099507;28;20210;-75
2021/10/01 09:19:38;;;;;;;9.80;6.07;;;;;;;14.62;78.32;96788.34;5100788;28;20199;-75
2021/10/01 09:22:06;;;;;;;14.57;6.20;;;;;;;14.56;79.98;96782.97;5100252;28;20202;-75
2021/10/01 09:24:35;;;;;;;12.55;6.20;;;;;;;14.75;79.55;96786.66;5099689;28;20207;-74
2021/10/01 09:27:01;;;;;;;14.80;5.78;;;;;;;14.79;78.04;96779.97;5098817;28;20283;-74
2021/10/01 09:29:31;;;;;;;10.23;5.43;;;;;;;15.08;77.05;96777.16;5099995;28;20222;-75
2021/10/01 09:31:59;;;;;;;10.63;5.57;;;;;;;15.10;78.22;96771.69;5100243;28;20234;-75
2021/10/01 09:34:35;;;;;;;10.45;5.45;;;;;;;15.34;78.26;96764.13;5099837;28;20203;-74
2021/10/01 09:37:04;;;;;;;10.00;5.53;;;;;;;15.61;77.24;96758.78;5099817;28;20218;-75
2021/10/01 09:39:34;;;;;;;9.20;5.47;;;;;;;15.84;75.73;96756.69;5100235;28;20565;-75
2021/10/01 09:42:15;;;;;;;10.18;5.13;;;;;;;16.00;74.35;96748.41;5100020;28;20214;-75
2021/10/01 09:44:47;;;;;;;12.73;5.47;;;;;;;16.04;73.60;96742.47;5100285;28;20218;-75
2021/10/01 09:47:14;;;;;;;7.40;5.05;;;;;;;16.07;73.18;96743.91;5096053;28;20207;-74
2021/10/01 09:49:41;;;;;;;12.82;4.82;;;;;;;16.30;72.53;96737.28;5099649;28;20227;-75
2021/10/01 09:52:11;;;;;;;6.10;4.57;;;;;;;16.43;71.78;96737.31;5100076;28;20254;-74
2021/10/01 09:54:39;;;;;;;8.93;4.72;;;;;;;16.43;72.97;96728.50;5100131;28;20199;-75
2021/10/01 09:57:08;;;;;;;7.72;4.15;;;;;;;16.56;73.36;96734.69;5099054;28;20203;-75
2021/10/01 09:59:36;;;;;;;8.05;4.13;;;;;;;16.82;71.99;96732.06;5099819;28;20204;-75
2021/10/01 10:02:06;;;;;;;9.52;4.55;;;;;;;16.79;71.98;96725.31;5099040;28;20238;-75
2021/10/01 10:04:36;;;;;;;6.07;4.72;;;;;;;17.16;70.73;96722.84;5099411;28;20195;-75
2021/10/01 10:07:15;;;;;;;10.48;4.82;;;;;;;17.52;70.71;96719.78;5098608;28;20225;-75
2021/10/01 10:09:45;;;;;;;7.88;4.15;;;;;;;17.59;70.61;96707.25;5100490;28;20226;-75
2021/10/01 10:12:15;;;;;;;6.65;3.83;;;;;;;17.27;70.58;96708.97;5099329;28;20702;-75
2021/10/01 10:14:49;;;;;;;6.55;3.83;;;;;;;17.68;67.76;96712.16;5099335;28;20210;-75
2021/10/01 10:17:17;;;;;;;5.97;3.50;;;;;;;17.70;68.54;96718.09;5099339;28;20203;-75
2021/10/01 10:19:44;;;;;;;5.93;3.53;;;;;;;17.54;66.79;96713.22;5100067;28;20192;-75
2021/10/01 10:22:11;;;;;;;7.70;3.38;;;;;;;17.06;67.20;96704.84;5099393;28;20202;-75
2021/10/01 10:24:39;;;;;;;7.13;3.60;;;;;;;17.71;68.15;96717.06;5099820;28;20203;-75
2021/10/01 10:27:07;;;;;;;5.30;3.13;;;;;;;17.44;67.07;96704.84;5099011;28;20199;-75
2021/10/01 10:29:34;;;;;;;6.38;2.80;;;;;;;17.47;72.58;96704.41;5099045;28;20230;-75
2021/10/01 10:32:01;;;;;;;5.15;3.47;;;;;;;17.51;67.81;96708.28;5099012;28;20565;-75
2021/10/01 10:34:30;;;;;;;6.88;3.78;;;;;;;18.04;67.81;96699.13;5099034;28;20203;-75
2021/10/01 10:37:03;;;;;;;8.13;3.40;;;;;;;18.21;66.26;96700.31;5098270;28;20987;-75
2021/10/01 10:39:38;;;;;;;5.93;2.60;;;;;;;17.78;67.78;96691.19;5099043;28;20215;-74
2021/10/01 10:42:12;;;;;;;4.18;2.63;;;;;;;18.33;67.70;96692.22;5099328;28;20393;-75
2021/10/01 10:44:49;;;;;;;4.05;2.65;;;;;;;18.72;65.54;96683.16;5098976;28;20195;-76
2021/10/01 10:47:54;;;;;;;6.85;3.03;;;;;;;18.68;65.41;96680.09;5094958;28;20210;-75
2021/10/01 10:50:36;;;;;;;5.13;2.55;;;;;;;18.94;64.02;96674.56;5098710;28;20232;-74
2021/10/01 10:53:13;;;;;;;5.53;2.65;;;;;;;18.95;64.92;96676.19;5098887;28;20702;-74
2021/10/01 10:55:44;;;;;;;4.78;2.60;;;;;;;19.06;65.25;96662.97;5097984;28;21081;-75
2021/10/01 10:58:53;;;;;;;4.53;2.80;;;;;;;19.38;64.26;96663.72;5098839;28;20214;-75
2021/10/01 11:01:36;;;;;;;3.97;2.40;;;;;;;18.98;63.37;96655.22;5078250;28;20222;-75
2021/10/01 11:04:25;;;;;;;4.22;2.40;;;;;;;19.34;63.55;96651.84;5098630;28;20599;-75
2021/10/01 11:06:51;;;;;;;3.80;2.42;;;;;;;19.10;64.33;96652.66;5098075;28;20319;-75
2021/10/01 11:09:28;;;;;;;4.50;2.88;;;;;;;19.54;62.16;96653.25;5098679;28;20199;-75
2021/10/01 11:11:58;;;;;;;8.00;3.47;;;;;;;19.28;62.93;96650.03;5098758;28;20199;-75
2021/10/01 11:14:26;;;;;;;7.22;2.70;;;;;;;19.35;62.75;96642.78;5098060;28;20264;-75
2021/10/01 11:17:18;;;;;;;5.70;2.88;;;;;;;20.02;61.95;96644.28;5098283;28;20202;-75
2021/10/01 11:19:50;;;;;;;3.67;2.60;;;;;;;19.80;61.91;96642.25;5098956;28;20199;-75
2021/10/01 11:22:32;;;;;;;4.80;2.47;;;;;;;19.46;64.09;96636.69;5099077;28;20758;-75
2021/10/01 11:25:11;;;;;;;4.97;2.53;;;;;;;19.45;62.64;96635.03;5097856;28;20203;-75
2021/10/01 11:27:50;;;;;;;7.30;2.70;;;;;;;19.46;63.77;96631.34;5097059;28;20195;-75
2021/10/01 11:30:17;;;;;;;7.57;3.40;;;;;;;19.29;64.18;96632.97;5098129;28;20218;-75
2021/10/01 11:32:45;;;;;;;5.35;2.50;;;;;;;19.28;65.39;96621.44;5097914;28;20235;-75
2021/10/01 11:35:11;;;;;;;4.68;2.80;;;;;;;19.49;64.06;96620.19;5098257;28;20229;-75
2021/10/01 11:37:40;;;;;;;5.43;2.28;;;;;;;19.68;62.31;96612.78;5096956;28;20203;-75
2021/10/01 11:40:10;;;;;;;6.78;2.30;;;;;;;19.21;61.51;96617.22;5097482;28;20656;-75
2021/10/01 11:42:38;;;;;;;4.40;2.17;;;;;;;19.57;61.69;96603.88;5097294;28;20219;-75
2021/10/01 11:45:11;;;;;;;5.65;2.40;;;;;;;19.61;62.41;96598.69;5094289;28;21057;-75
2021/10/01 11:47:38;;;;;;;4.95;2.28;;;;;;;19.53;63.11;96594.69;5096769;28;20726;-75
2021/10/01 11:50:08;;;;;;;6.32;2.20;;;;;;;19.50;63.98;96584.41;5097330;28;20223;-74
2021/10/01 11:52:43;;;;;;;5.40;2.00;;;;;;;19.47;64.93;96579.53;5097703;28;21270;-75
2021/10/01 11:55:10;;;;;;;2.47;1.80;;;;;;;19.49;62.20;96577.41;5097311;28;21248;-75
2021/10/01 11:57:38;;;;;;;3.00;2.10;;;;;;;19.62;61.40;96583.44;5096554;28;20218;-75
2021/10/01 12:00:08;;;;;;;6.63;2.10;;;;;;;19.70;61.14;96580.47;5097214;28;20579;-75
2021/10/01 12:02:36;;;;;;;4.90;2.00;;;;;;;19.69;62.99;96576.97;5097733;28;20219;-74
2021/10/01 12:05:27;;;;;;;5.93;2.00;;;;;;;19.69;61.56;96576.97;5097840;28;20286;-75
2021/10/01 12:07:55;;;;;;;5.55;2.08;;;;;;;19.28;64.09;96569.88;5095944;28;20294;-75
2021/10/01 12:10:25;;;;;;;4.47;1.80;;;;;;;19.56;62.05;96554.13;5097259;28;20227;-75
2021/10/01 12:13:13;;;;;;;5.63;2.28;;;;;;;19.74;61.84;96554.91;5097785;28;20219;-75
2021/10/01 12:15:43;;;;;;;4.53;1.95;;;;;;;19.69;62.60;96560.94;5096723;28;20230;-74
2021/10/01 12:18:28;;;;;;;3.20;1.85;;;;;;;19.80;61.79;96549.44;5098091;28;20205;-74
2021/10/01 12:20:57;;;;;;;4.38;1.70;;;;;;;19.89;62.21;96541.94;5097806;28;20207;-74
2021/10/01 12:23:26;;;;;;;5.55;2.20;;;;;;;19.98;62.51;96540.63;5097452;28;20223;-74
2021/10/01 12:25:54;;;;;;;5.53;1.70;;;;;;;20.01;62.30;96543.66;5096882;28;20218;-74
2021/10/01 12:28:22;;;;;;;2.42;1.60;;;;;;;19.88;62.73;96537.63;5097493;28;20207;-75
2021/10/01 12:31:00;;;;;;;3.75;1.88;;;;;;;20.12;60.94;96534.03;5097467;28;20222;-75
2021/10/01 12:33:27;;;;;;;4.43;1.80;;;;;;;19.84;61.66;96531.91;5098054;28;20590;-74
2021/10/01 12:35:56;;;;;;;3.40;1.70;;;;;;;19.93;62.45;96530.56;5096824;28;20292;-74
2021/10/01 12:38:24;;;;;;;3.90;1.95;;;;;;;19.94;62.04;96528.75;5095714;28;20578;-74
2021/10/01 12:41:09;;;;;;;7.45;2.13;;;;;;;20.18;60.86;96515.19;5097154;28;20239;-74
2021/10/01 12:43:43;;;;;;;3.13;1.85;;;;;;;20.14;63.27;96522.06;5097880;28;20231;-75
2021/10/01 12:46:10;;;;;;;2.38;1.63;;;;;;;20.05;61.37;96515.41;5092892;28;20213;-75
2021/10/01 12:48:37;;;;;;;3.70;1.90;;;;;;;19.84;62.70;96515.88;5097625;28;20236;-74
2021/10/01 12:51:22;;;;;;;2.83;1.50;;;;;;;20.39;61.15;96514.63;5097480;28;20227;-75
2021/10/01 12:53:49;;;;;;;2.50;1.63;;;;;;;20.30;60.88;96508.84;5095178;28;20223;-75
2021/10/01 12:56:18;;;;;;;3.80;2.00;;;;;;;20.44;61.52;96506.75;5094981;28;20588;-75
2021/10/01 12:58:44;;;;;;;4.00;1.88;;;;;;;20.20;60.18;96502.41;5095826;28;20201;-74
2021/10/01 13:01:17;;;;;;;3.60;1.48;;;;;;;20.60;60.48;96506.06;5095929;28;20199;-74
2021/10/01 13:03:47;;;;;;;2.95;1.85;;;;;;;20.51;59.40;96500.22;5096170;28;20828;-74
2021/10/01 13:09:36;;;;;;;2.55;1.50;;;;;;;20.69;60.05;96497.44;5078872;27;20576;-75
2021/10/01 13:12:02;;;;;;;4.40;1.73;;;;;;;20.37;60.71;96488.09;5073005;28;20210;-75
2021/10/01 13:14:29;;;;;;;4.03;1.90;;;;;;;20.38;59.72;96487.06;5072588;28;20196;-74
2021/10/01 13:16:56;;;;;;;4.50;1.80;;;;;;;20.39;59.45;96488.72;5072120;28;20212;-75
2021/10/01 13:19:23;;;;;;;1.95;1.42;;;;;;;20.68;60.41;96484.28;5073102;28;20684;-75